Time;durP1;ratioP1;P1;durP2;ratioP2;P2;SDS_P1;SDS_P2;PMS_P1;PMS_P2;Temp;Humidity;BMP_temperature;BMP_pressure;BME280_temperature;BME280_humidity;BME280_pressure;Samples;Min_cycle;Max_cycle;Signal;HPM_P1;HPM_P2
2023/10/31 00:01:58;;;;;;;1.33;0.70;;;;;;;10.52;100.00;98392.31;4974594;28;20246;-74
2023/10/31 00:04:23;;;;;;;1.13;1.10;;;;;;;10.45;100.00;98389.41;4989676;28;20986;-74
2023/10/31 00:06:50;;;;;;;0.77;0.73;;;;;;;10.40;100.00;98391.53;4986118;28;20195;-73
2023/10/31 00:09:16;;;;;;;0.93;0.93;;;;;;;10.43;100.00;98391.31;4990667;28;20183;-74
2023/10/31 00:11:42;;;;;;;5.67;0.90;;;;;;;10.48;100.00;98403.78;4994204;28;20578;-75
2023/10/31 00:14:08;;;;;;;1.37;0.80;;;;;;;10.44;100.00;98394.69;4990758;28;20184;-73
2023/10/31 00:16:33;;;;;;;1.90;0.90;;;;;;;10.42;100.00;98388.84;4992392;28;20283;-74
2023/10/31 00:18:59;;;;;;;1.37;0.90;;;;;;;10.41;100.00;98388.03;4990835;28;20631;-75
2023/10/31 00:21:25;;;;;;;1.33;0.70;;;;;;;10.31;100.00;98387.13;4973774;28;20274;-76
2023/10/31 00:23:51;;;;;;;1.70;1.13;;;;;;;10.33;100.00;98391.22;4987101;28;20238;-75
2023/10/31 00:26:16;;;;;;;0.80;0.80;;;;;;;10.28;100.00;98384.81;4993808;28;20191;-74
2023/10/31 00:28:41;;;;;;;1.17;0.83;;;;;;;10.23;100.00;98394.63;4994335;28;20194;-75
2023/10/31 00:31:08;;;;;;;2.83;1.07;;;;;;;10.27;100.00;98396.00;4968151;28;20329;-78
2023/10/31 00:33:34;;;;;;;2.83;0.60;;;;;;;10.21;100.00;98396.50;4984109;28;20311;-77
2023/10/31 00:36:00;;;;;;;2.83;0.83;;;;;;;10.24;100.00;98397.09;4996396;28;20241;-78
2023/10/31 00:38:25;;;;;;;1.07;0.80;;;;;;;10.20;100.00;98400.84;4992133;28;20187;-78
2023/10/31 00:40:50;;;;;;;3.60;1.00;;;;;;;10.28;100.00;98406.19;4991609;28;20243;-78
2023/10/31 00:43:15;;;;;;;1.03;1.00;;;;;;;10.26;100.00;98408.06;4993959;28;20245;-76
2023/10/31 00:45:41;;;;;;;2.13;1.00;;;;;;;10.21;100.00;98415.31;4996001;28;20689;-77
2023/10/31 00:48:06;;;;;;;1.13;0.73;;;;;;;10.22;100.00;98413.56;4996267;28;20242;-75
2023/10/31 00:50:31;;;;;;;2.00;0.83;;;;;;;10.24;100.00;98412.50;4989185;28;20234;-77
2023/10/31 00:52:57;;;;;;;1.10;1.00;;;;;;;10.23;100.00;98417.75;5006621;28;20176;-76
2023/10/31 00:55:22;;;;;;;0.73;0.73;;;;;;;10.17;100.00;98416.50;4995665;28;20259;-76
2023/10/31 00:57:47;;;;;;;0.83;0.83;;;;;;;10.13;100.00;98421.09;4995504;28;20187;-75
2023/10/31 01:00:13;;;;;;;2.83;1.00;;;;;;;10.18;100.00;98423.25;4984858;28;20588;-77
2023/10/31 01:02:38;;;;;;;1.87;0.90;;;;;;;10.13;100.00;98415.13;4993393;28;20207;-75
2023/10/31 01:05:04;;;;;;;1.20;1.10;;;;;;;10.02;100.00;98414.22;4995520;28;20187;-77
2023/10/31 01:07:29;;;;;;;4.63;1.10;;;;;;;10.03;100.00;98409.88;4994003;28;20246;-76
2023/10/31 01:09:56;;;;;;;3.73;1.00;;;;;;;9.96;100.00;98414.72;4995402;28;20619;-76
2023/10/31 01:12:21;;;;;;;2.63;1.10;;;;;;;9.99;100.00;98421.34;4999482;28;20222;-76
2023/10/31 01:14:47;;;;;;;1.07;1.07;;;;;;;9.95;100.00;98423.34;4995437;28;20245;-76
2023/10/31 01:17:12;;;;;;;1.30;1.10;;;;;;;9.99;100.00;98426.50;4993714;28;20188;-76
2023/10/31 01:19:37;;;;;;;3.70;0.80;;;;;;;9.94;100.00;98434.56;4995367;28;20194;-75
2023/10/31 01:22:03;;;;;;;1.53;1.00;;;;;;;9.93;100.00;98440.63;4998923;28;20230;-77
2023/10/31 01:24:28;;;;;;;0.90;0.70;;;;;;;9.87;100.00;98442.88;4994984;28;20218;-75
2023/10/31 01:26:53;;;;;;;0.80;0.80;;;;;;;9.85;100.00;98448.13;4995005;28;20374;-78
2023/10/31 01:29:19;;;;;;;1.23;1.00;;;;;;;9.74;100.00;98450.72;4995461;28;20701;-75
2023/10/31 01:31:44;;;;;;;1.10;1.00;;;;;;;9.79;100.00;98451.16;4997368;28;20226;-77
2023/10/31 01:34:09;;;;;;;1.20;0.90;;;;;;;9.81;100.00;98468.09;4990046;28;20202;-78
2023/10/31 01:36:35;;;;;;;2.80;0.93;;;;;;;9.73;100.00;98459.34;4992028;28;20176;-77
2023/10/31 01:39:00;;;;;;;1.60;1.20;;;;;;;9.73;100.00;98462.72;4994867;28;20635;-77
2023/10/31 01:41:25;;;;;;;1.20;1.00;;;;;;;9.66;100.00;98464.13;4994019;28;20226;-76
2023/10/31 01:43:50;;;;;;;0.80;0.80;;;;;;;9.59;100.00;98456.09;4999807;28;20187;-76
2023/10/31 01:46:16;;;;;;;2.30;1.00;;;;;;;9.50;100.00;98456.78;4995035;28;20195;-76
2023/10/31 01:48:42;;;;;;;1.47;1.10;;;;;;;9.42;100.00;98464.25;4993229;28;20675;-76
2023/10/31 01:51:09;;;;;;;1.10;1.00;;;;;;;9.53;100.00;98462.50;4992620;28;20230;-77
2023/10/31 01:53:36;;;;;;;3.90;0.90;;;;;;;9.58;100.00;98469.84;4993102;28;20270;-75
2023/10/31 01:56:03;;;;;;;1.20;1.00;;;;;;;9.51;100.00;98476.38;4993141;28;20179;-76
2023/10/31 01:58:34;;;;;;;0.80;0.80;;;;;;;9.49;100.00;98476.50;4993284;28;20187;-75
2023/10/31 02:01:00;;;;;;;1.77;1.00;;;;;;;9.51;100.00;98489.22;4991432;28;20709;-76
2023/10/31 02:03:26;;;;;;;0.90;0.90;;;;;;;9.30;100.00;98484.78;4992497;28;20223;-77
2023/10/31 02:05:52;;;;;;;1.17;1.03;;;;;;;9.41;100.00;98490.84;4993123;28;20234;-77
2023/10/31 02:08:17;;;;;;;2.90;1.17;;;;;;;9.36;100.00;98494.59;4993053;28;20175;-78
2023/10/31 02:10:42;;;;;;;1.30;1.13;;;;;;;9.27;100.00;98486.78;4989622;28;20313;-77
2023/10/31 02:13:16;;;;;;;2.07;1.10;;;;;;;9.19;100.00;98488.16;4999912;28;20676;-77
2023/10/31 02:15:42;;;;;;;0.93;0.93;;;;;;;9.10;100.00;98486.25;4981092;28;20600;-77
2023/10/31 02:18:08;;;;;;;1.63;0.97;;;;;;;9.15;100.00;98486.75;4992832;28;20183;-76
2023/10/31 02:20:34;;;;;;;2.67;1.00;;;;;;;9.06;100.00;98481.50;4988259;28;20230;-76
2023/10/31 02:22:59;;;;;;;1.67;1.10;;;;;;;9.03;100.00;98474.84;4991669;28;20293;-75
2023/10/31 02:25:24;;;;;;;4.83;1.27;;;;;;;8.99;100.00;98484.50;4994346;28;20868;-75
2023/10/31 02:27:50;;;;;;;1.93;1.00;;;;;;;8.95;100.00;98472.81;4981402;28;20188;-75
2023/10/31 02:30:16;;;;;;;2.67;1.37;;;;;;;8.82;100.00;98469.53;4985896;28;20191;-76
2023/10/31 02:32:41;;;;;;;1.23;0.90;;;;;;;8.77;100.00;98477.56;4992212;28;20191;-76
2023/10/31 02:35:08;;;;;;;2.47;1.10;;;;;;;8.74;100.00;98471.84;4992586;28;20242;-76
2023/10/31 02:37:34;;;;;;;1.40;1.00;;;;;;;8.77;100.00;98477.56;4991410;28;20180;-76
2023/10/31 02:40:00;;;;;;;2.67;1.00;;;;;;;8.74;100.00;98470.09;4992320;28;20202;-77
2023/10/31 02:42:26;;;;;;;1.63;1.10;;;;;;;8.71;100.00;98475.47;4998404;28;20263;-77
2023/10/31 02:44:51;;;;;;;2.83;1.20;;;;;;;8.66;100.00;98472.41;4992560;28;20207;-76
2023/10/31 02:47:16;;;;;;;1.00;0.90;;;;;;;8.64;100.00;98481.94;4993084;28;20187;-78
2023/10/31 02:49:41;;;;;;;1.03;0.93;;;;;;;8.65;100.00;98486.16;4992655;28;20180;-77
2023/10/31 02:52:07;;;;;;;2.97;1.17;;;;;;;8.63;100.00;98485.44;4984155;28;20253;-77
2023/10/31 02:54:32;;;;;;;1.33;1.23;;;;;;;8.66;100.00;98495.50;4991789;28;20242;-76
2023/10/31 02:56:58;;;;;;;2.10;1.00;;;;;;;8.77;100.00;98494.69;4993303;28;20209;-76
2023/10/31 02:59:23;;;;;;;1.53;1.00;;;;;;;8.71;100.00;98496.78;4992287;28;20175;-76
2023/10/31 03:01:49;;;;;;;4.40;1.10;;;;;;;8.79;100.00;98495.41;5000984;28;20232;-78
2023/10/31 03:04:14;;;;;;;1.67;0.90;;;;;;;8.69;100.00;98490.94;4995235;28;20305;-76
2023/10/31 03:06:39;;;;;;;4.30;0.83;;;;;;;8.72;100.00;98506.09;4993039;28;20539;-75
2023/10/31 03:09:06;;;;;;;2.53;1.33;;;;;;;8.75;100.00;98507.63;4993252;28;20530;-76
2023/10/31 03:11:32;;;;;;;2.07;1.00;;;;;;;8.78;100.00;98511.72;4984276;28;20335;-76
2023/10/31 03:13:58;;;;;;;1.30;1.00;;;;;;;8.73;100.00;98527.41;4996693;28;20234;-76
2023/10/31 03:16:23;;;;;;;2.23;1.43;;;;;;;8.67;100.00;98528.69;4992055;28;20188;-77
2023/10/31 03:18:48;;;;;;;2.27;1.20;;;;;;;8.67;100.00;98533.81;4993054;28;20201;-77
2023/10/31 03:21:14;;;;;;;3.33;1.30;;;;;;;8.68;100.00;98542.31;4991870;28;20229;-77
2023/10/31 03:23:41;;;;;;;1.33;1.10;;;;;;;8.69;100.00;98536.25;4997748;28;20195;-77
2023/10/31 03:26:06;;;;;;;1.13;1.00;;;;;;;8.70;100.00;98533.59;4993281;28;20273;-76
2023/10/31 03:28:31;;;;;;;2.93;1.27;;;;;;;8.73;100.00;98540.22;4992846;28;20588;-76
2023/10/31 03:30:57;;;;;;;1.97;1.40;;;;;;;8.78;100.00;98534.78;4989651;28;20229;-77
2023/10/31 03:33:23;;;;;;;2.23;1.20;;;;;;;8.71;100.00;98536.97;4989970;28;20180;-76
2023/10/31 03:35:48;;;;;;;1.50;1.40;;;;;;;8.68;100.00;98540.59;4991542;28;20575;-78
2023/10/31 03:38:13;;;;;;;2.93;1.40;;;;;;;8.74;100.00;98551.31;4992500;28;20187;-76
2023/10/31 03:40:39;;;;;;;2.33;1.27;;;;;;;8.74;100.00;98551.31;4987342;28;20644;-77
2023/10/31 03:43:04;;;;;;;1.43;1.30;;;;;;;8.69;100.00;98559.34;5001522;28;20190;-77
2023/10/31 03:45:30;;;;;;;2.90;1.60;;;;;;;8.67;100.00;98550.94;4992709;28;20211;-77
2023/10/31 03:47:55;;;;;;;2.73;1.47;;;;;;;8.59;100.00;98563.50;4992576;28;20244;-77
2023/10/31 03:50:21;;;;;;;2.73;1.40;;;;;;;8.59;100.00;98572.00;4983783;28;20180;-77
2023/10/31 03:52:46;;;;;;;2.83;1.77;;;;;;;8.68;100.00;98578.19;5004334;28;20195;-76
2023/10/31 03:55:11;;;;;;;1.73;1.20;;;;;;;8.69;100.00;98583.22;4992987;28;20254;-77
2023/10/31 03:57:36;;;;;;;3.23;1.70;;;;;;;8.82;100.00;98585.75;4992701;28;20656;-75
2023/10/31 04:00:04;;;;;;;3.60;1.70;;;;;;;8.92;100.00;98590.19;4987524;28;20186;-76
2023/10/31 04:02:30;;;;;;;3.57;1.80;;;;;;;8.99;100.00;98594.78;5005800;28;20298;-77
2023/10/31 04:04:55;;;;;;;2.90;1.33;;;;;;;9.09;100.00;98600.06;4991153;28;20175;-77
2023/10/31 04:07:20;;;;;;;2.77;1.53;;;;;;;9.16;100.00;98590.19;4991987;28;20175;-76
2023/10/31 04:09:45;;;;;;;1.10;0.90;;;;;;;9.34;100.00;98595.69;4992465;28;20271;-76
2023/10/31 04:12:11;;;;;;;1.60;1.33;;;;;;;9.36;100.00;98591.28;4982522;28;20227;-76
2023/10/31 04:14:38;;;;;;;1.57;1.47;;;;;;;9.29;100.00;98588.34;4990999;28;20179;-76
2023/10/31 04:17:03;;;;;;;2.30;1.10;;;;;;;9.31;100.00;98595.94;4990862;28;20230;-76
2023/10/31 04:19:29;;;;;;;1.37;0.90;;;;;;;9.33;100.00;98594.88;4991851;28;20650;-77
2023/10/31 04:21:54;;;;;;;1.50;1.00;;;;;;;9.33;100.00;98602.59;4995136;28;20291;-76
2023/10/31 04:24:19;;;;;;;0.80;0.80;;;;;;;9.37;100.00;98598.84;4993489;28;20218;-76
2023/10/31 04:26:45;;;;;;;1.50;0.90;;;;;;;9.52;100.00;98602.03;4992211;28;20628;-77
2023/10/31 04:29:10;;;;;;;1.00;0.90;;;;;;;9.60;100.00;98613.50;4992002;28;20498;-76
2023/10/31 04:31:35;;;;;;;1.90;0.87;;;;;;;9.62;100.00;98614.22;4962504;28;20253;-76
2023/10/31 04:34:01;;;;;;;2.23;1.00;;;;;;;9.72;100.00;98617.72;4995695;28;20179;-76
2023/10/31 04:36:26;;;;;;;1.00;1.00;;;;;;;9.76;100.00;98616.56;4992028;28;20248;-76
2023/10/31 04:38:52;;;;;;;3.17;1.03;;;;;;;9.61;100.00;98627.97;4991102;28;20665;-76
2023/10/31 04:41:17;;;;;;;1.60;1.00;;;;;;;9.61;100.00;98627.97;4982265;28;20686;-76
2023/10/31 04:43:43;;;;;;;2.40;1.30;;;;;;;9.53;100.00;98624.22;4997232;28;20201;-75
2023/10/31 04:46:08;;;;;;;0.97;0.90;;;;;;;9.56;100.00;98630.06;4990658;28;20183;-75
2023/10/31 04:48:33;;;;;;;0.80;0.80;;;;;;;9.49;100.00;98627.16;4991731;28;20187;-75
2023/10/31 04:50:59;;;;;;;2.40;1.37;;;;;;;9.57;100.00;98627.38;4983430;28;20234;-76
2023/10/31 04:53:24;;;;;;;2.40;1.00;;;;;;;9.55;100.00;98619.00;4999633;28;20206;-76
2023/10/31 04:55:49;;;;;;;1.77;0.93;;;;;;;9.51;100.00;98626.09;4990697;28;20650;-76
2023/10/31 04:58:15;;;;;;;2.33;1.30;;;;;;;9.49;100.00;98627.94;4992225;28;20190;-76
2023/10/31 05:00:41;;;;;;;1.53;1.10;;;;;;;9.49;100.00;98630.50;4983459;28;20254;-77
2023/10/31 05:03:06;;;;;;;1.00;1.00;;;;;;;9.51;100.00;98623.53;4999890;28;20263;-75
2023/10/31 05:05:32;;;;;;;2.83;1.67;;;;;;;9.60;100.00;98626.31;4990173;28;20210;-74
2023/10/31 05:07:58;;;;;;;4.43;1.10;;;;;;;9.72;100.00;98622.84;4991719;28;20282;-74
2023/10/31 05:10:24;;;;;;;1.87;1.10;;;;;;;9.77;100.00;98623.31;4984287;28;21118;-76
2023/10/31 05:12:50;;;;;;;1.33;0.90;;;;;;;9.73;100.00;98629.63;4990756;28;20254;-75
2023/10/31 05:15:16;;;;;;;1.93;1.30;;;;;;;9.71;100.00;98633.25;4994933;28;20179;-75
2023/10/31 05:17:41;;;;;;;0.90;0.90;;;;;;;9.78;100.00;98635.22;4995360;28;20193;-75
2023/10/31 05:20:08;;;;;;;1.43;1.00;;;;;;;9.73;100.00;98628.81;4984714;28;20280;-75
2023/10/31 05:22:33;;;;;;;3.83;1.27;;;;;;;9.72;100.00;98632.31;5007170;28;20211;-74
2023/10/31 05:24:59;;;;;;;3.13;0.90;;;;;;;9.65;100.00;98634.50;4995152;28;20518;-76
2023/10/31 05:27:24;;;;;;;1.17;0.97;;;;;;;9.71;100.00;98636.63;4995340;28;20198;-76
2023/10/31 05:29:49;;;;;;;1.63;1.10;;;;;;;9.77;100.00;98643.84;4995217;28;20652;-75
2023/10/31 05:32:15;;;;;;;3.10;0.90;;;;;;;9.81;100.00;98645.28;4999217;28;20306;-75
2023/10/31 05:34:40;;;;;;;3.90;1.07;;;;;;;9.88;100.00;98645.63;4994556;28;20187;-75
2023/10/31 05:37:06;;;;;;;1.73;0.90;;;;;;;9.91;100.00;98649.72;4995301;28;20187;-75
2023/10/31 05:39:31;;;;;;;2.03;1.30;;;;;;;9.84;100.00;98645.03;4994896;28;20638;-75
2023/10/31 05:41:56;;;;;;;1.20;1.00;;;;;;;9.83;100.00;98648.53;4985640;28;20310;-75
2023/10/31 05:44:22;;;;;;;4.43;0.93;;;;;;;9.82;100.00;98651.22;4993488;28;20207;-75
2023/10/31 05:46:47;;;;;;;0.80;0.80;;;;;;;9.93;100.00;98650.44;4993227;28;20175;-75
2023/10/31 05:49:12;;;;;;;3.53;1.20;;;;;;;9.81;100.00;98650.44;4992959;28;20210;-75
2023/10/31 05:51:38;;;;;;;2.70;1.40;;;;;;;9.91;100.00;98652.28;4987017;28;20734;-75
2023/10/31 05:54:07;;;;;;;3.13;1.43;;;;;;;9.85;100.00;98649.25;4994467;28;20191;-75
2023/10/31 05:56:32;;;;;;;3.43;1.13;;;;;;;9.92;100.00;98652.16;4993505;28;20175;-75
2023/10/31 05:58:57;;;;;;;2.20;1.20;;;;;;;9.89;100.00;98656.75;4992971;28;20643;-74
2023/10/31 06:01:22;;;;;;;1.13;1.00;;;;;;;9.92;100.00;98659.06;4985507;28;20238;-76
2023/10/31 06:03:48;;;;;;;2.73;0.97;;;;;;;9.85;100.00;98656.97;4998611;28;20385;-76
2023/10/31 06:06:13;;;;;;;1.17;1.03;;;;;;;9.97;100.00;98662.09;4992886;28;20195;-76
2023/10/31 06:08:39;;;;;;;2.03;0.83;;;;;;;10.00;100.00;98664.47;4992537;28;20179;-76
2023/10/31 06:11:06;;;;;;;1.43;0.90;;;;;;;10.00;100.00;98674.72;4992258;28;20646;-77
2023/10/31 06:13:32;;;;;;;3.33;0.80;;;;;;;9.96;100.00;98676.72;4992364;28;20640;-75
2023/10/31 06:15:58;;;;;;;2.47;1.00;;;;;;;9.96;100.00;98679.28;4994289;28;20235;-76
2023/10/31 06:18:23;;;;;;;1.40;0.80;;;;;;;9.99;100.00;98691.06;4992600;28;20644;-76
2023/10/31 06:20:49;;;;;;;1.90;1.10;;;;;;;9.95;100.00;98694.81;4985427;28;20317;-76
2023/10/31 06:23:14;;;;;;;0.97;0.87;;;;;;;9.90;100.00;98690.00;5002615;28;20198;-77
2023/10/31 06:25:39;;;;;;;3.00;1.10;;;;;;;9.88;100.00;98696.19;4994168;28;20282;-76
2023/10/31 06:28:05;;;;;;;1.80;0.90;;;;;;;9.93;100.00;98701.81;4993764;28;20654;-75
2023/10/31 06:30:30;;;;;;;2.57;1.07;;;;;;;9.98;100.00;98705.66;4985755;28;20234;-75
2023/10/31 06:32:55;;;;;;;4.53;1.53;;;;;;;9.92;100.00;98723.28;4992148;28;20218;-75
2023/10/31 06:35:24;;;;;;;1.83;1.00;;;;;;;9.96;100.00;98724.69;4993903;28;20548;-76
2023/10/31 06:37:49;;;;;;;3.17;0.87;;;;;;;9.88;100.00;98735.53;4992584;28;20700;-76
2023/10/31 06:40:15;;;;;;;1.10;0.90;;;;;;;9.97;100.00;98736.59;4985838;28;20269;-76
2023/10/31 06:42:40;;;;;;;1.37;0.97;;;;;;;9.85;100.00;98738.34;4990929;28;20195;-76
2023/10/31 06:45:06;;;;;;;1.13;1.00;;;;;;;9.90;100.00;98743.94;4994005;28;20194;-76
2023/10/31 06:47:31;;;;;;;2.57;0.80;;;;;;;9.95;100.00;98749.56;4993556;28;20194;-75
2023/10/31 06:49:56;;;;;;;3.17;1.30;;;;;;;9.99;100.00;98753.53;4993548;28;20329;-76
2023/10/31 06:52:22;;;;;;;2.70;1.20;;;;;;;9.99;100.00;98756.09;4982258;28;20246;-75
2023/10/31 06:54:47;;;;;;;2.03;1.17;;;;;;;10.04;100.00;98760.09;4992131;28;20643;-75
2023/10/31 06:57:12;;;;;;;2.87;1.67;;;;;;;10.01;100.00;98769.66;4993106;28;20198;-75
2023/10/31 06:59:37;;;;;;;3.07;1.33;;;;;;;10.08;100.00;98770.03;4992188;28;20748;-76
2023/10/31 07:02:03;;;;;;;2.90;1.27;;;;;;;10.02;100.00;98770.47;4997112;28;20231;-75
2023/10/31 07:04:28;;;;;;;2.30;1.10;;;;;;;9.95;100.00;98766.75;4992837;28;20246;-78
2023/10/31 07:06:57;;;;;;;2.07;1.10;;;;;;;9.89;100.00;98765.41;4993204;28;20198;-76
2023/10/31 07:09:23;;;;;;;3.23;1.10;;;;;;;9.83;100.00;98758.16;4991818;28;20176;-77
2023/10/31 07:11:48;;;;;;;4.10;1.17;;;;;;;9.88;100.00;98768.91;4974174;28;20231;-77
2023/10/31 07:14:14;;;;;;;3.77;1.13;;;;;;;9.99;100.00;98781.78;4981215;28;20500;-79
2023/10/31 07:16:40;;;;;;;0.73;0.67;;;;;;;9.89;100.00;98783.41;4992045;28;20191;-76
2023/10/31 07:19:05;;;;;;;3.13;1.00;;;;;;;9.93;100.00;98795.09;4993728;28;20299;-77
2023/10/31 07:21:30;;;;;;;2.27;1.00;;;;;;;9.91;100.00;98793.56;4993090;28;20284;-75
2023/10/31 07:23:55;;;;;;;2.03;0.90;;;;;;;10.02;100.00;98793.59;4986018;28;20655;-75
2023/10/31 07:26:21;;;;;;;1.87;1.27;;;;;;;10.07;100.00;98806.94;4992844;28;20289;-75
2023/10/31 07:28:48;;;;;;;7.60;1.10;;;;;;;10.00;100.00;98803.19;4993179;28;20566;-77
2023/10/31 07:31:14;;;;;;;0.87;0.80;;;;;;;10.07;100.00;98796.66;4989339;28;20230;-74
2023/10/31 07:33:39;;;;;;;1.90;0.90;;;;;;;10.08;100.00;98800.84;4984613;28;20825;-73
2023/10/31 07:36:04;;;;;;;2.27;1.23;;;;;;;10.08;100.00;98789.75;4990917;28;20307;-73
2023/10/31 07:38:30;;;;;;;3.13;1.23;;;;;;;10.08;100.00;98793.13;4991996;28;20327;-75
2023/10/31 07:40:55;;;;;;;1.30;1.17;;;;;;;10.27;100.00;98802.06;4989464;28;20296;-73
2023/10/31 07:43:21;;;;;;;3.20;1.20;;;;;;;10.35;100.00;98807.47;4990755;28;20187;-76
2023/10/31 07:45:46;;;;;;;1.27;0.90;;;;;;;10.25;100.00;98803.94;4991656;28;20176;-76
2023/10/31 07:48:12;;;;;;;1.07;0.77;;;;;;;10.51;100.00;98811.50;4991747;28;20686;-75
2023/10/31 07:50:37;;;;;;;1.33;0.93;;;;;;;10.60;100.00;98805.66;4985906;28;20226;-75
2023/10/31 07:53:02;;;;;;;1.40;0.80;;;;;;;10.55;100.00;98807.75;4984397;28;20541;-76
2023/10/31 07:55:28;;;;;;;1.00;0.87;;;;;;;10.55;100.00;98803.44;4992505;28;20183;-74
2023/10/31 07:57:53;;;;;;;1.50;1.20;;;;;;;10.69;100.00;98809.28;4993545;28;20270;-73
2023/10/31 08:00:18;;;;;;;3.20;0.97;;;;;;;10.80;100.00;98804.97;4984597;28;20540;-72
2023/10/31 08:02:44;;;;;;;1.43;0.90;;;;;;;10.84;100.00;98813.28;5004566;28;20749;-72
2023/10/31 08:05:10;;;;;;;4.57;1.20;;;;;;;11.00;100.00;98815.47;4992404;28;20536;-72
2023/10/31 08:07:36;;;;;;;1.40;1.03;;;;;;;11.03;100.00;98822.97;4992902;28;20329;-74
2023/10/31 08:10:01;;;;;;;3.60;1.00;;;;;;;10.99;100.00;98819.00;4992659;28;20627;-73
2023/10/31 08:12:27;;;;;;;3.13;0.93;;;;;;;10.96;100.00;98819.22;4981115;28;20220;-76
2023/10/31 08:14:52;;;;;;;2.17;0.80;;;;;;;10.91;100.00;98821.34;4987779;28;20183;-76
2023/10/31 08:17:17;;;;;;;4.30;1.20;;;;;;;11.17;100.00;98803.88;4992655;28;20258;-75
2023/10/31 08:19:42;;;;;;;2.27;1.20;;;;;;;11.19;100.00;98808.91;4987739;28;20176;-74
2023/10/31 08:22:08;;;;;;;2.03;0.90;;;;;;;11.36;100.00;98811.00;4996731;28;20336;-77
2023/10/31 08:24:35;;;;;;;5.07;1.27;;;;;;;11.49;100.00;98818.56;4990441;28;20667;-77
2023/10/31 08:27:02;;;;;;;4.87;0.90;;;;;;;11.57;100.00;98812.81;4991961;28;20175;-77
2023/10/31 08:29:28;;;;;;;2.20;1.00;;;;;;;11.60;100.00;98823.69;4991610;28;20184;-76
2023/10/31 08:31:54;;;;;;;4.20;1.00;;;;;;;11.65;100.00;98825.91;4972809;28;20226;-77
2023/10/31 08:34:19;;;;;;;1.47;1.07;;;;;;;11.54;100.00;98821.59;4993568;28;20329;-78
2023/10/31 08:36:44;;;;;;;2.83;0.90;;;;;;;11.38;100.00;98819.41;4992158;28;20806;-62
2023/10/31 08:39:09;;;;;;;3.93;1.40;;;;;;;11.34;100.00;98817.19;4991866;28;20191;-61
2023/10/31 08:41:35;;;;;;;2.47;1.00;;;;;;;11.45;100.00;98827.50;4990164;28;20230;-76
2023/10/31 08:44:03;;;;;;;2.13;1.00;;;;;;;11.35;100.00;98834.28;4994259;28;20919;-76
2023/10/31 08:46:28;;;;;;;2.00;1.10;;;;;;;11.58;100.00;98838.44;4991177;28;20241;-74
2023/10/31 08:48:53;;;;;;;2.63;1.10;;;;;;;11.67;100.00;98847.22;4995074;28;20191;-76
2023/10/31 08:51:19;;;;;;;3.07;1.00;;;;;;;11.56;100.00;98866.09;4996113;28;20631;-74
2023/10/31 08:53:44;;;;;;;2.13;0.90;;;;;;;11.75;100.00;98864.63;4994149;28;20187;-78
2023/10/31 08:56:09;;;;;;;1.33;0.90;;;;;;;11.99;100.00;98868.81;4996491;28;20184;-78
2023/10/31 08:58:35;;;;;;;1.93;0.90;;;;;;;12.10;100.00;98874.72;4994091;28;20631;-77
2023/10/31 09:01:00;;;;;;;1.20;1.00;;;;;;;12.24;100.00;98878.78;4987122;28;20227;-75
2023/10/31 09:03:25;;;;;;;1.67;0.87;;;;;;;12.36;100.00;98871.78;4993704;28;20550;-76
2023/10/31 09:05:51;;;;;;;1.43;0.80;;;;;;;12.35;100.00;98877.88;4984269;28;20183;-76
2023/10/31 09:08:16;;;;;;;1.10;1.00;;;;;;;12.14;100.00;98882.22;4996492;28;20187;-74
2023/10/31 09:10:42;;;;;;;1.90;0.97;;;;;;;12.34;100.00;98881.44;4991096;28;20226;-78
2023/10/31 09:13:08;;;;;;;2.67;0.67;;;;;;;12.46;100.00;98895.06;5005861;28;20176;-77
2023/10/31 09:15:33;;;;;;;5.33;1.00;;;;;;;12.33;100.00;98897.00;4990508;28;20492;-75
2023/10/31 09:17:58;;;;;;;2.40;0.80;;;;;;;12.12;100.00;98905.53;4995813;28;20677;-73
2023/10/31 09:20:24;;;;;;;1.13;0.80;;;;;;;12.10;100.00;98907.41;4987327;28;20329;-74
2023/10/31 09:22:49;;;;;;;1.00;0.87;;;;;;;11.95;100.00;98906.84;4996553;28;20635;-75
2023/10/31 09:25:14;;;;;;;1.87;1.00;;;;;;;11.91;100.00;98926.09;4995214;28;20247;-75
2023/10/31 09:27:41;;;;;;;1.90;0.80;;;;;;;12.03;100.00;98932.88;4995215;28;20183;-74
2023/10/31 09:30:07;;;;;;;1.30;0.97;;;;;;;12.13;100.00;98926.97;4984339;28;20237;-77
2023/10/31 09:32:32;;;;;;;4.00;1.30;;;;;;;12.09;100.00;98934.97;4985795;28;20181;-72
2023/10/31 09:34:58;;;;;;;1.93;0.93;;;;;;;12.19;100.00;98935.06;4995075;28;20545;-75
2023/10/31 09:37:23;;;;;;;3.03;1.10;;;;;;;12.08;100.00;98941.06;4994781;28;20188;-76
2023/10/31 09:39:48;;;;;;;3.13;1.00;;;;;;;12.10;100.00;98934.00;4995155;28;20219;-75
2023/10/31 09:42:14;;;;;;;1.67;0.90;;;;;;;12.18;100.00;98936.00;4998577;28;20301;-78
2023/10/31 09:44:39;;;;;;;3.27;1.20;;;;;;;12.37;100.00;98930.16;4993829;28;20187;-74
2023/10/31 09:47:06;;;;;;;2.73;0.90;;;;;;;12.64;100.00;98936.59;4995495;28;20274;-77
2023/10/31 09:49:31;;;;;;;3.03;0.90;;;;;;;12.63;100.00;98944.44;4993791;28;20218;-76
2023/10/31 09:51:58;;;;;;;1.30;0.93;;;;;;;12.54;100.00;98946.03;4999040;28;20726;-75
2023/10/31 09:54:25;;;;;;;3.27;1.00;;;;;;;12.73;100.00;98943.59;4993800;28;20180;-76
2023/10/31 09:56:51;;;;;;;2.37;0.80;;;;;;;12.76;100.00;98942.50;4995081;28;20647;-74
2023/10/31 09:59:16;;;;;;;2.20;1.07;;;;;;;13.05;100.00;98942.69;4993642;28;20191;-75
2023/10/31 10:01:42;;;;;;;4.67;1.50;;;;;;;13.06;100.00;98935.75;4986923;28;20238;-75
2023/10/31 10:04:07;;;;;;;2.80;0.80;;;;;;;13.08;100.00;98939.03;4984712;28;20280;-74
2023/10/31 10:06:33;;;;;;;3.23;1.10;;;;;;;13.09;100.00;98930.34;4994330;28;20187;-74
2023/10/31 10:08:58;;;;;;;1.47;0.80;;;;;;;13.12;100.00;98924.91;4994682;28;20275;-75
2023/10/31 10:11:26;;;;;;;2.33;0.90;;;;;;;13.29;100.00;98933.00;4985768;28;20666;-76
2023/10/31 10:13:54;;;;;;;2.13;1.17;;;;;;;13.29;100.00;98930.44;4989105;28;20275;-74
2023/10/31 10:16:31;;;;;;;1.20;0.90;;;;;;;13.30;100.00;98938.03;4992662;28;20238;-75
2023/10/31 10:18:56;;;;;;;5.53;0.93;;;;;;;13.36;100.00;98934.13;4985781;28;20179;-73
2023/10/31 10:21:22;;;;;;;1.63;0.90;;;;;;;13.43;100.00;98937.03;4982218;28;20223;-74
2023/10/31 10:23:50;;;;;;;1.60;0.83;;;;;;;13.71;100.00;98936.28;4992918;28;20184;-73
2023/10/31 10:26:15;;;;;;;3.37;0.93;;;;;;;14.21;100.00;98944.94;4991139;28;20208;-76
2023/10/31 10:28:41;;;;;;;3.70;0.93;;;;;;;14.44;100.00;98945.50;4991318;28;20190;-76
2023/10/31 10:31:06;;;;;;;1.27;0.80;;;;;;;14.58;100.00;98948.63;4985877;28;20656;-74
2023/10/31 10:33:33;;;;;;;1.23;0.80;;;;;;;14.25;100.00;98956.66;4991472;28;20271;-74
2023/10/31 10:35:59;;;;;;;6.13;0.93;;;;;;;14.21;100.00;98952.69;4993790;28;20238;-74
2023/10/31 10:38:25;;;;;;;3.03;0.90;;;;;;;14.06;100.00;98962.63;4993626;28;20582;-79
2023/10/31 10:40:53;;;;;;;2.50;1.30;;;;;;;14.08;100.00;98958.16;4989926;28;20277;-76
2023/10/31 10:43:22;;;;;;;1.57;0.70;;;;;;;14.22;100.00;98954.34;4989637;28;20180;-74
2023/10/31 10:45:53;;;;;;;3.30;1.20;;;;;;;14.12;100.00;98943.19;4992594;28;20214;-72
2023/10/31 10:48:20;;;;;;;8.60;0.80;;;;;;;13.92;100.00;98948.31;4993815;28;20191;-73
2023/10/31 10:50:50;;;;;;;2.53;1.00;;;;;;;13.91;100.00;98944.09;4988617;28;20233;-74
2023/10/31 10:53:26;;;;;;;2.40;1.00;;;;;;;13.74;100.00;98940.38;5002108;28;20198;-74
2023/10/31 10:55:56;;;;;;;5.03;1.20;;;;;;;13.68;100.00;98944.31;4992125;28;20236;-73
2023/10/31 10:58:44;;;;;;;3.50;1.00;;;;;;;13.64;100.00;98942.13;4994515;28;20186;-72
2023/10/31 11:01:10;;;;;;;6.17;1.10;;;;;;;13.57;100.00;98934.09;4985520;28;20289;-73
2023/10/31 11:03:36;;;;;;;4.00;1.20;;;;;;;13.58;100.00;98932.31;4999721;28;20231;-72
2023/10/31 11:06:03;;;;;;;3.67;1.10;;;;;;;13.48;100.00;98922.78;4993259;28;20210;-74
2023/10/31 11:08:29;;;;;;;3.17;1.20;;;;;;;13.40;100.00;98926.00;4992975;28;20183;-72
2023/10/31 11:10:55;;;;;;;2.83;1.10;;;;;;;13.32;100.00;98925.00;4981133;28;20230;-73
2023/10/31 11:13:22;;;;;;;4.67;1.00;;;;;;;13.43;100.00;98926.69;4982788;28;20186;-76
2023/10/31 11:15:51;;;;;;;2.70;1.30;;;;;;;13.53;100.00;98923.22;4991971;28;20262;-74
2023/10/31 11:18:17;;;;;;;4.57;1.47;;;;;;;13.13;100.00;98923.16;4991815;28;20184;-73
2023/10/31 11:20:43;;;;;;;2.50;1.10;;;;;;;13.25;100.00;98927.28;4987800;28;20229;-74
2023/10/31 11:23:08;;;;;;;2.97;1.20;;;;;;;13.43;100.00;98922.34;5002781;28;20190;-73